createdAt,value
2017-10-26T00:01:53.992Z,37.57
2017-10-26T00:04:21.596Z,30.27
2017-10-26T00:06:49.193Z,36.13
2017-10-26T00:09:16.837Z,45.47
2017-10-26T00:11:44.439Z,53.87
2017-10-26T00:14:12.040Z,36.43
2017-10-26T00:16:39.768Z,33.57
2017-10-26T00:19:07.376Z,50.83
2017-10-26T00:21:35.036Z,35.80
2017-10-26T00:24:02.695Z,40.90
2017-10-26T00:26:30.302Z,38.47
2017-10-26T00:28:57.975Z,37.33
2017-10-26T00:31:26.551Z,35.23
2017-10-26T00:33:54.212Z,34.23
2017-10-26T00:36:21.853Z,36.93
2017-10-26T00:38:49.569Z,38.17
2017-10-26T00:41:17.230Z,36.33
2017-10-26T00:43:44.901Z,35.03
2017-10-26T00:46:12.619Z,39.03
2017-10-26T00:48:40.291Z,31.07
2017-10-26T00:51:07.962Z,32.97
2017-10-26T00:53:35.623Z,33.37
2017-10-26T00:56:03.256Z,29.67
2017-10-26T00:58:31.022Z,32.77
2017-10-26T01:00:58.688Z,31.20
2017-10-26T01:03:26.549Z,31.00
2017-10-26T01:05:54.147Z,32.73
2017-10-26T01:08:21.856Z,35.10
2017-10-26T01:10:49.521Z,32.07
2017-10-26T01:13:17.124Z,36.33
2017-10-26T01:15:44.804Z,40.00
2017-10-26T01:18:12.471Z,35.00
2017-10-26T01:20:40.156Z,31.70
2017-10-26T01:23:08.149Z,35.57
2017-10-26T01:25:35.771Z,33.87
2017-10-26T01:28:03.463Z,37.90
2017-10-26T01:30:31.322Z,56.33
2017-10-26T01:32:59.080Z,54.73
2017-10-26T01:35:26.725Z,54.07
2017-10-26T01:37:54.415Z,47.10
2017-10-26T01:40:23.088Z,39.80
2017-10-26T01:42:50.715Z,43.13
2017-10-26T01:45:18.400Z,46.53
2017-10-26T01:47:46.132Z,50.27
2017-10-26T01:50:14.136Z,47.03
2017-10-26T01:52:42.056Z,46.60
2017-10-26T01:55:09.847Z,46.00
2017-10-26T01:57:37.573Z,38.13
2017-10-26T02:00:05.289Z,34.60
2017-10-26T02:02:33.715Z,37.73
2017-10-26T02:05:01.340Z,43.90
2017-10-26T02:07:29.007Z,41.30
2017-10-26T02:09:56.676Z,41.17
2017-10-26T02:12:24.307Z,46.47
2017-10-26T02:14:52.048Z,43.33
2017-10-26T02:17:19.659Z,42.00
2017-10-26T02:19:47.332Z,48.40
2017-10-26T02:22:15.952Z,40.83
2017-10-26T02:24:43.559Z,35.50
2017-10-26T02:27:11.621Z,37.57
2017-10-26T02:29:51.131Z,37.53
2017-10-26T02:32:18.743Z,39.20
2017-10-26T02:34:46.352Z,39.00
2017-10-26T02:37:14.796Z,55.97
2017-10-26T02:39:42.411Z,38.03
2017-10-26T02:42:10.012Z,54.70
2017-10-26T02:44:37.726Z,37.80
2017-10-26T02:47:05.350Z,36.83
2017-10-26T02:49:32.960Z,63.37
2017-10-26T02:52:00.628Z,37.60
2017-10-26T02:54:28.232Z,34.30
2017-10-26T02:56:55.937Z,38.97
2017-10-26T02:59:23.664Z,44.77
2017-10-26T03:01:51.424Z,52.40
2017-10-26T03:04:19.204Z,47.30
2017-10-26T03:06:47.047Z,47.07
2017-10-26T03:09:14.652Z,47.70
2017-10-26T03:11:42.274Z,59.50
2017-10-26T03:14:09.994Z,45.83
2017-10-26T03:16:37.599Z,38.00
2017-10-26T03:19:05.208Z,53.90
2017-10-26T03:21:32.916Z,62.97
2017-10-26T03:24:00.524Z,47.10
2017-10-26T03:26:28.251Z,56.90
2017-10-26T03:28:55.965Z,37.80
2017-10-26T03:31:23.568Z,37.43
2017-10-26T03:33:51.336Z,31.23
2017-10-26T03:36:19.048Z,33.00
2017-10-26T03:38:46.655Z,33.00
2017-10-26T03:41:14.359Z,34.77
2017-10-26T03:43:42.140Z,30.67
2017-10-26T03:46:09.746Z,32.00
2017-10-26T03:48:37.520Z,32.80
2017-10-26T03:51:05.209Z,30.47
2017-10-26T03:53:32.811Z,45.37
2017-10-26T03:56:00.493Z,56.23
2017-10-26T03:58:28.221Z,40.40
2017-10-26T04:00:55.832Z,60.23
2017-10-26T04:03:23.441Z,40.57
2017-10-26T04:05:51.100Z,35.03
2017-10-26T04:08:19.435Z,31.07
2017-10-26T04:10:47.082Z,30.87
2017-10-26T04:13:17.595Z,33.70
2017-10-26T04:15:45.208Z,31.43
2017-10-26T04:18:12.829Z,34.17
2017-10-26T04:20:40.501Z,35.73
2017-10-26T04:23:08.200Z,34.23
2017-10-26T04:25:35.866Z,34.17
2017-10-26T04:28:03.587Z,33.03
2017-10-26T04:30:31.328Z,40.60
2017-10-26T04:32:59.010Z,37.70
2017-10-26T04:35:26.769Z,35.57
2017-10-26T04:37:54.379Z,37.50
2017-10-26T04:40:22.043Z,38.17
2017-10-26T04:42:49.703Z,54.80
2017-10-26T04:45:17.322Z,57.13
2017-10-26T04:47:44.940Z,56.60
2017-10-26T04:50:12.844Z,62.57
2017-10-26T04:52:40.450Z,59.00
2017-10-26T04:55:08.055Z,64.00
2017-10-26T04:57:35.816Z,72.63
2017-10-26T05:00:03.435Z,89.17
2017-10-26T05:02:31.104Z,87.37
2017-10-26T05:04:58.751Z,79.93
2017-10-26T05:07:26.379Z,66.47
2017-10-26T05:09:53.984Z,63.53
2017-10-26T05:12:33.640Z,64.93
2017-10-26T05:15:01.372Z,58.70
2017-10-26T05:17:29.047Z,56.57
2017-10-26T05:19:56.700Z,64.87
2017-10-26T05:22:24.373Z,60.33
2017-10-26T05:24:51.983Z,69.13
2017-10-26T05:27:19.652Z,67.30
2017-10-26T05:29:47.259Z,61.17
2017-10-26T05:32:14.986Z,59.30
2017-10-26T05:34:42.707Z,49.20
2017-10-26T05:37:10.316Z,50.13
2017-10-26T05:39:37.987Z,44.77
2017-10-26T05:42:05.724Z,44.73
2017-10-26T05:44:33.390Z,50.83
2017-10-26T05:47:01.008Z,50.50
2017-10-26T05:49:28.659Z,44.77
2017-10-26T05:51:56.325Z,53.13
2017-10-26T05:54:23.928Z,53.30
2017-10-26T05:56:51.705Z,53.77
2017-10-26T05:59:19.424Z,49.10
2017-10-26T06:01:47.056Z,50.07
2017-10-26T06:04:14.721Z,31.73
2017-10-26T06:06:42.335Z,36.20
2017-10-26T06:09:10.065Z,37.70
2017-10-26T06:11:37.807Z,36.60
2017-10-26T06:14:05.491Z,40.30
2017-10-26T06:16:33.355Z,34.17
2017-10-26T06:19:01.083Z,33.77
2017-10-26T06:21:28.693Z,40.70
2017-10-26T06:23:56.328Z,42.80
2017-10-26T06:26:24.041Z,39.40
2017-10-26T06:28:51.675Z,33.83
2017-10-26T06:31:19.284Z,28.30
2017-10-26T06:33:46.978Z,30.50
2017-10-26T06:36:14.589Z,26.87
2017-10-26T06:38:42.202Z,24.43
2017-10-26T06:41:09.925Z,31.07
2017-10-26T06:43:37.588Z,30.80
2017-10-26T06:46:05.239Z,20.43
2017-10-26T06:48:32.956Z,19.43
2017-10-26T06:51:00.676Z,15.83
2017-10-26T06:53:28.337Z,15.90
2017-10-26T06:55:56.004Z,15.87
2017-10-26T06:58:23.688Z,13.60
2017-10-26T07:00:52.060Z,16.17
2017-10-26T07:03:19.808Z,15.47
2017-10-26T07:05:47.412Z,14.60
2017-10-26T07:08:15.076Z,12.87
2017-10-26T07:10:42.838Z,13.20
2017-10-26T07:13:10.505Z,13.23
2017-10-26T07:15:38.176Z,12.87
2017-10-26T07:18:05.897Z,13.53
2017-10-26T07:20:33.536Z,12.30
2017-10-26T07:23:01.209Z,14.40
2017-10-26T07:25:29.379Z,12.53
2017-10-26T07:27:56.993Z,13.50
2017-10-26T07:30:24.599Z,11.40
2017-10-26T07:32:52.389Z,13.63
2017-10-26T07:35:20.054Z,10.50
2017-10-26T07:37:47.667Z,12.10
2017-10-26T07:40:15.391Z,13.50
2017-10-26T07:42:43.115Z,25.83
2017-10-26T07:45:10.723Z,24.23
2017-10-26T07:47:38.446Z,25.47
2017-10-26T07:50:06.116Z,24.83
2017-10-26T07:52:33.729Z,28.20
2017-10-26T07:55:01.392Z,24.97
2017-10-26T07:57:29.085Z,26.40
2017-10-26T07:59:56.704Z,22.80
2017-10-26T08:02:24.399Z,20.27
2017-10-26T08:04:52.072Z,21.77
2017-10-26T08:07:19.691Z,19.50
2017-10-26T08:09:47.425Z,17.43
2017-10-26T08:12:15.107Z,17.97
2017-10-26T08:14:42.038Z,17.90
2017-10-26T08:17:09.708Z,16.57
2017-10-26T08:19:37.318Z,16.43
2017-10-26T08:22:05.168Z,15.73
2017-10-26T08:24:33.056Z,15.00
2017-10-26T08:27:00.669Z,18.87
2017-10-26T08:29:28.384Z,19.10
2017-10-26T08:31:56.143Z,17.43
2017-10-26T08:34:23.768Z,19.43
2017-10-26T08:36:51.375Z,18.37
2017-10-26T08:39:19.093Z,15.03
2017-10-26T08:41:46.702Z,14.90
2017-10-26T08:44:14.307Z,17.70
2017-10-26T08:46:43.023Z,18.20
2017-10-26T08:49:14.048Z,15.73
2017-10-26T08:51:42.367Z,14.53
2017-10-26T08:54:10.193Z,15.07
2017-10-26T08:56:38.049Z,16.13
2017-10-26T08:59:05.667Z,14.03
2017-10-26T09:01:33.421Z,16.27
2017-10-26T09:04:01.023Z,13.97
2017-10-26T09:06:28.728Z,13.70
2017-10-26T09:08:56.497Z,14.57
2017-10-26T09:11:24.269Z,14.30
2017-10-26T09:13:52.299Z,12.40
2017-10-26T09:16:20.099Z,14.17
2017-10-26T09:18:47.882Z,11.30
2017-10-26T09:21:15.591Z,10.30
2017-10-26T09:23:43.439Z,10.90
2017-10-26T09:26:11.060Z,10.50
2017-10-26T09:28:38.696Z,10.10
2017-10-26T09:31:06.520Z,11.10
2017-10-26T09:33:37.692Z,10.40
2017-10-26T09:36:05.383Z,9.47
2017-10-26T09:38:34.259Z,8.23
2017-10-26T09:41:01.903Z,9.27
2017-10-26T09:43:30.321Z,9.53
2017-10-26T09:45:58.035Z,10.00
2017-10-26T09:48:25.750Z,10.70
2017-10-26T09:50:53.542Z,10.23
2017-10-26T09:53:21.263Z,7.60
2017-10-26T09:55:49.000Z,8.70
2017-10-26T09:58:16.684Z,8.50
2017-10-26T10:00:44.460Z,7.93
2017-10-26T10:03:12.179Z,7.40
2017-10-26T10:05:42.691Z,7.47
2017-10-26T10:08:10.432Z,6.70
2017-10-26T10:10:38.083Z,7.80
2017-10-26T10:13:05.698Z,8.00
2017-10-26T10:15:33.584Z,8.37
2017-10-26T10:18:01.235Z,7.57
2017-10-26T10:20:28.914Z,7.90
2017-10-26T10:22:56.624Z,9.83
2017-10-26T10:25:24.303Z,6.60
2017-10-26T10:27:52.961Z,7.77
2017-10-26T10:30:20.783Z,6.43
2017-10-26T10:32:49.483Z,6.93
2017-10-26T10:35:17.100Z,6.90
2017-10-26T10:37:44.928Z,6.73
2017-10-26T10:40:12.620Z,7.23
2017-10-26T10:42:40.414Z,7.30
2017-10-26T10:45:08.101Z,7.13
2017-10-26T10:47:35.730Z,8.17
2017-10-26T10:50:03.748Z,7.47
2017-10-26T10:52:31.423Z,7.60
2017-10-26T10:54:59.127Z,7.47
2017-10-26T10:57:27.037Z,6.90
2017-10-26T11:00:00.327Z,6.90
2017-10-26T11:02:28.540Z,7.37
2017-10-26T11:04:56.214Z,6.37
2017-10-26T11:07:24.011Z,7.80
2017-10-26T11:09:51.954Z,8.00
2017-10-26T11:12:19.571Z,7.70
2017-10-26T11:14:47.333Z,5.97
2017-10-26T11:17:14.963Z,6.73
2017-10-26T11:19:42.635Z,6.87
2017-10-26T11:22:10.368Z,8.40
2017-10-26T11:24:38.156Z,8.23
2017-10-26T11:27:05.863Z,6.77
2017-10-26T11:29:33.567Z,7.00
2017-10-26T11:32:01.227Z,7.20
2017-10-26T11:34:28.925Z,7.03
2017-10-26T11:36:56.655Z,6.70
2017-10-26T11:39:24.681Z,7.07
2017-10-26T11:41:52.392Z,7.27
2017-10-26T11:44:20.353Z,7.33
2017-10-26T11:46:48.240Z,7.10
2017-10-26T11:49:15.886Z,7.77
2017-10-26T11:51:43.621Z,8.60
2017-10-26T11:54:11.336Z,7.23
2017-10-26T11:56:39.027Z,8.57
2017-10-26T11:59:06.808Z,9.70
2017-10-26T12:01:34.468Z,7.83
2017-10-26T12:04:02.192Z,8.93
2017-10-26T12:06:29.983Z,9.03
2017-10-26T12:08:57.622Z,7.70
2017-10-26T12:11:25.243Z,7.63
2017-10-26T12:13:52.959Z,10.93
2017-10-26T12:16:20.796Z,9.20
2017-10-26T12:18:48.503Z,9.33
2017-10-26T12:21:16.392Z,8.00
2017-10-26T12:23:44.167Z,8.90
2017-10-26T12:26:11.788Z,9.93
2017-10-26T12:28:39.518Z,8.50
2017-10-26T12:31:07.312Z,9.83
2017-10-26T12:33:35.088Z,8.93
2017-10-26T12:36:02.783Z,7.90
2017-10-26T12:38:30.531Z,7.60
2017-10-26T12:40:58.360Z,9.50
2017-10-26T12:43:26.044Z,9.70
2017-10-26T12:45:53.675Z,8.07
2017-10-26T12:48:21.455Z,8.70
2017-10-26T12:50:49.175Z,8.10
2017-10-26T12:53:17.043Z,8.40
2017-10-26T12:55:44.835Z,9.50
2017-10-26T12:58:12.571Z,9.07
2017-10-26T13:00:40.270Z,10.00
2017-10-26T13:03:07.978Z,9.30
2017-10-26T13:05:35.723Z,9.70
2017-10-26T13:08:03.384Z,10.70
2017-10-26T13:10:31.091Z,9.73
2017-10-26T13:12:58.751Z,10.70
2017-10-26T13:15:26.499Z,8.67
2017-10-26T13:17:55.158Z,8.47
2017-10-26T13:20:22.854Z,8.27
2017-10-26T13:22:50.539Z,7.40
2017-10-26T13:25:18.183Z,7.97
2017-10-26T13:27:46.036Z,7.23
2017-10-26T13:30:13.639Z,8.70
2017-10-26T13:32:41.244Z,9.80
2017-10-26T13:35:08.912Z,8.87
2017-10-26T13:37:36.604Z,8.53
2017-10-26T13:40:04.308Z,10.00
2017-10-26T13:42:32.044Z,11.33
2017-10-26T13:44:59.730Z,11.60
2017-10-26T13:47:27.471Z,10.40
2017-10-26T13:49:55.205Z,8.70
2017-10-26T13:52:22.975Z,10.20
2017-10-26T13:54:50.685Z,16.93
2017-10-26T13:57:18.563Z,14.70
2017-10-26T13:59:46.211Z,12.20
2017-10-26T14:02:13.900Z,9.50
2017-10-26T14:04:41.587Z,10.50
2017-10-26T14:07:09.264Z,13.67
2017-10-26T14:09:36.959Z,12.17
2017-10-26T14:12:04.620Z,12.23
2017-10-26T14:14:32.279Z,24.47
2017-10-26T14:16:59.915Z,26.87
2017-10-26T14:19:27.720Z,23.43
2017-10-26T14:21:55.353Z,23.33
2017-10-26T14:24:22.971Z,22.20
2017-10-26T14:26:50.639Z,17.93
2017-10-26T14:29:18.308Z,16.73
2017-10-26T14:31:46.159Z,17.20
2017-10-26T14:34:13.882Z,23.23
2017-10-26T14:36:41.491Z,17.10
2017-10-26T14:39:09.269Z,16.17
2017-10-26T14:41:37.065Z,15.50
2017-10-26T14:44:04.676Z,16.50
2017-10-26T14:46:32.590Z,18.03
2017-10-26T14:49:00.307Z,22.27
2017-10-26T14:51:27.924Z,21.77
2017-10-26T14:53:55.649Z,28.63
2017-10-26T14:56:23.306Z,27.40
2017-10-26T14:58:51.014Z,27.67
2017-10-26T15:01:18.778Z,39.37
2017-10-26T15:03:46.500Z,39.83
2017-10-26T15:06:14.214Z,38.23
2017-10-26T15:08:41.839Z,52.17
2017-10-26T15:11:09.654Z,78.20
2017-10-26T15:13:37.411Z,46.70
2017-10-26T15:16:05.059Z,37.10
2017-10-26T15:18:32.717Z,33.50
2017-10-26T15:21:00.416Z,33.17
2017-10-26T15:23:28.083Z,34.47
2017-10-26T15:25:55.769Z,36.67
2017-10-26T15:28:23.391Z,43.03
2017-10-26T15:30:51.031Z,49.77
2017-10-26T15:33:18.687Z,49.23
2017-10-26T15:35:46.363Z,49.43
2017-10-26T15:38:13.975Z,46.37
2017-10-26T15:40:41.735Z,41.03
2017-10-26T15:43:09.496Z,40.73
2017-10-26T15:45:37.163Z,31.40
2017-10-26T15:48:04.831Z,33.40
2017-10-26T15:50:32.515Z,30.47
2017-10-26T15:53:00.128Z,31.17
2017-10-26T15:55:27.816Z,34.43
2017-10-26T15:57:55.435Z,37.50
2017-10-26T16:00:23.047Z,40.17
2017-10-26T16:02:50.756Z,39.17
2017-10-26T16:05:18.402Z,40.80
2017-10-26T16:07:46.119Z,39.60
2017-10-26T16:10:13.816Z,38.60
2017-10-26T16:12:41.433Z,39.70
2017-10-26T16:15:09.151Z,41.03
2017-10-26T16:17:36.857Z,52.03
2017-10-26T16:20:04.536Z,47.00
2017-10-26T16:22:32.162Z,46.30
2017-10-26T16:25:00.073Z,46.77
2017-10-26T16:27:33.281Z,44.70
2017-10-26T16:30:01.047Z,57.30
2017-10-26T16:32:28.847Z,54.67
2017-10-26T16:34:56.521Z,44.60
2017-10-26T16:37:24.216Z,40.80
2017-10-26T16:39:51.921Z,39.20
2017-10-26T16:42:19.599Z,42.60
2017-10-26T16:44:47.255Z,42.17
2017-10-26T16:47:14.867Z,41.37
2017-10-26T16:49:42.510Z,37.07
2017-10-26T16:52:10.229Z,37.00
2017-10-26T16:54:37.987Z,36.50
2017-10-26T16:57:05.655Z,74.07
2017-10-26T16:59:33.379Z,31.27
2017-10-26T17:02:01.140Z,25.43
2017-10-26T17:04:28.944Z,32.47
2017-10-26T17:06:56.815Z,32.73
2017-10-26T17:09:24.472Z,33.77
2017-10-26T17:11:52.079Z,31.83
2017-10-26T17:14:19.791Z,35.83
2017-10-26T17:16:47.400Z,37.10
2017-10-26T17:19:15.031Z,32.20
2017-10-26T17:21:42.718Z,25.77
2017-10-26T17:24:10.340Z,27.30
2017-10-26T17:26:37.946Z,32.40
2017-10-26T17:29:05.673Z,31.37
2017-10-26T17:31:33.291Z,31.57
2017-10-26T17:34:00.924Z,34.73
2017-10-26T17:36:28.587Z,37.20
2017-10-26T17:38:56.196Z,38.37
2017-10-26T17:41:23.853Z,41.70
2017-10-26T17:43:51.519Z,39.50
2017-10-26T17:46:19.135Z,39.27
2017-10-26T17:48:46.815Z,36.83
2017-10-26T17:51:14.671Z,32.70
2017-10-26T17:53:42.283Z,41.90
2017-10-26T17:56:09.962Z,44.80
2017-10-26T17:58:37.680Z,43.20
2017-10-26T18:01:05.527Z,42.47
2017-10-26T18:03:33.190Z,39.17
2017-10-26T18:06:00.944Z,44.17
2017-10-26T18:08:28.552Z,41.97
2017-10-26T18:10:56.288Z,42.10
2017-10-26T18:13:24.012Z,41.70
2017-10-26T18:15:51.685Z,35.90
2017-10-26T18:18:19.303Z,33.70
2017-10-26T18:20:47.056Z,32.93
2017-10-26T18:23:14.794Z,37.40
2017-10-26T18:25:42.507Z,45.10
2017-10-26T18:28:10.181Z,43.97
2017-10-26T18:30:37.851Z,44.60
2017-10-26T18:33:05.530Z,42.67
2017-10-26T18:35:33.367Z,39.23
2017-10-26T18:38:01.080Z,36.47
2017-10-26T18:40:28.777Z,30.37
2017-10-26T18:42:56.439Z,31.17
2017-10-26T18:45:24.107Z,32.93
2017-10-26T18:47:51.708Z,33.90
2017-10-26T18:50:19.372Z,36.40
2017-10-26T18:52:46.988Z,36.80
2017-10-26T18:55:14.620Z,30.57
2017-10-26T18:57:42.338Z,32.47
2017-10-26T19:00:09.972Z,30.30
2017-10-26T19:02:37.636Z,29.17
2017-10-26T19:05:05.356Z,23.47
2017-10-26T19:07:33.063Z,26.00
2017-10-26T19:10:00.659Z,23.53
2017-10-26T19:12:28.327Z,21.13
2017-10-26T19:14:55.988Z,22.23
2017-10-26T19:17:23.602Z,24.77
2017-10-26T19:19:51.263Z,24.50
2017-10-26T19:22:18.979Z,24.33
2017-10-26T19:24:46.640Z,24.10
2017-10-26T19:27:14.290Z,24.60
2017-10-26T19:29:41.916Z,18.23
2017-10-26T19:32:09.524Z,18.17
2017-10-26T19:34:37.274Z,15.73
2017-10-26T19:37:04.892Z,13.60
2017-10-26T19:39:32.627Z,13.37
2017-10-26T19:42:00.376Z,17.60
2017-10-26T19:44:28.048Z,22.13
2017-10-26T19:46:55.808Z,18.73
2017-10-26T19:49:23.574Z,16.37
2017-10-26T19:51:51.283Z,18.50
2017-10-26T19:54:18.927Z,18.03
2017-10-26T19:56:46.655Z,18.23
2017-10-26T19:59:14.255Z,15.80
2017-10-26T20:01:41.995Z,16.63
2017-10-26T20:04:09.747Z,14.60
2017-10-26T20:06:37.621Z,15.17
2017-10-26T20:09:05.372Z,14.00
2017-10-26T20:11:33.035Z,14.37
2017-10-26T20:14:00.643Z,16.13
2017-10-26T20:16:28.393Z,15.20
2017-10-26T20:18:56.184Z,14.37
2017-10-26T20:21:23.820Z,14.13
2017-10-26T20:23:51.710Z,15.90
2017-10-26T20:26:19.419Z,16.03
2017-10-26T20:28:47.080Z,14.83
2017-10-26T20:31:14.856Z,14.40
2017-10-26T20:33:42.699Z,17.17
2017-10-26T20:36:10.328Z,16.50
2017-10-26T20:38:37.980Z,16.57
2017-10-26T20:41:05.644Z,15.10
2017-10-26T20:43:33.363Z,15.67
2017-10-26T20:46:01.135Z,13.97
2017-10-26T20:48:28.887Z,16.10
2017-10-26T20:51:02.159Z,19.77
2017-10-26T20:56:41.831Z,25.57
2017-10-26T20:59:15.037Z,22.37
2017-10-26T21:01:48.227Z,19.70
2017-10-26T21:04:21.475Z,19.27
2017-10-26T21:06:49.119Z,19.23
2017-10-26T21:09:22.554Z,19.30
2017-10-26T21:11:55.775Z,20.80
2017-10-26T21:14:28.455Z,18.60
2017-10-26T21:16:56.159Z,19.90
2017-10-26T21:19:23.968Z,15.90
2017-10-26T21:21:51.638Z,15.40
2017-10-26T21:24:19.274Z,14.10
2017-10-26T21:26:46.974Z,14.90
2017-10-26T21:29:14.789Z,14.43
2017-10-26T21:31:42.436Z,14.40
2017-10-26T21:34:10.156Z,17.27
2017-10-26T21:36:37.819Z,17.20
2017-10-26T21:39:05.526Z,18.83
2017-10-26T21:41:33.175Z,17.80
2017-10-26T21:44:01.725Z,18.07
2017-10-26T21:46:29.392Z,18.00
2017-10-26T21:48:57.098Z,21.07
2017-10-26T21:51:24.799Z,21.10
2017-10-26T21:53:52.429Z,28.10
2017-10-26T21:56:20.277Z,33.73
2017-10-26T21:58:48.076Z,39.37
2017-10-26T22:01:15.712Z,38.07
2017-10-26T22:03:43.432Z,38.20
2017-10-26T22:06:11.255Z,44.10
2017-10-26T22:08:38.903Z,42.80
2017-10-26T22:11:06.587Z,42.23
2017-10-26T22:13:34.284Z,50.57
2017-10-26T22:16:01.907Z,43.30
2017-10-26T22:18:29.559Z,42.83
2017-10-26T22:20:57.256Z,43.00
2017-10-26T22:23:24.875Z,45.73
2017-10-26T22:25:52.599Z,43.30
2017-10-26T22:28:20.346Z,43.40
2017-10-26T22:30:47.963Z,44.47
2017-10-26T22:33:15.628Z,42.63
2017-10-26T22:35:43.391Z,37.33
2017-10-26T22:38:11.115Z,45.37
2017-10-26T22:40:38.735Z,39.73
2017-10-26T22:43:06.683Z,38.20
2017-10-26T22:45:34.453Z,34.77
2017-10-26T22:48:02.103Z,34.10
2017-10-26T22:50:29.881Z,31.10
2017-10-26T22:52:57.533Z,31.90
2017-10-26T22:55:25.267Z,33.37
2017-10-26T22:57:52.997Z,38.97
2017-10-26T23:00:20.622Z,41.40
2017-10-26T23:02:48.390Z,43.77
2017-10-26T23:05:16.128Z,43.87
2017-10-26T23:07:43.871Z,45.23
2017-10-26T23:10:11.478Z,44.67
2017-10-26T23:12:39.195Z,47.00
2017-10-26T23:15:06.791Z,46.50
2017-10-26T23:17:34.539Z,51.27
2017-10-26T23:20:02.287Z,56.57
2017-10-26T23:22:29.995Z,51.20
2017-10-26T23:24:57.711Z,51.77
2017-10-26T23:27:25.520Z,46.70
2017-10-26T23:29:53.244Z,50.80
2017-10-26T23:32:20.951Z,51.10
2017-10-26T23:34:48.654Z,49.20
2017-10-26T23:37:16.328Z,54.00
2017-10-26T23:39:44.092Z,47.90
2017-10-26T23:42:11.916Z,48.07
2017-10-26T23:44:39.556Z,49.13
2017-10-26T23:47:07.225Z,49.77
2017-10-26T23:49:35.016Z,52.20
2017-10-26T23:52:02.704Z,50.00
2017-10-26T23:54:30.312Z,43.70
2017-10-26T23:56:57.959Z,42.40
2017-10-26T23:59:25.635Z,44.80
